Time;durP1;ratioP1;P1;durP2;ratioP2;P2;SDS_P1;SDS_P2;PMS_P1;PMS_P2;Temp;Humidity;BMP_temperature;BMP_pressure;BME280_temperature;BME280_humidity;BME280_pressure;Samples;Min_cycle;Max_cycle;Signal;HPM_P1;HPM_P2
2022/12/22 03:26:37;;;;;;;2.80;1.10;;;13.80;45.40;;;;;;4994224;28;20389;-72
2022/12/22 03:29:03;;;;;;;2.80;1.20;;;14.10;44.70;;;;;;4993242;28;20577;-72
2022/12/22 03:31:29;;;;;;;2.83;1.10;;;13.90;44.50;;;;;;4993216;28;20587;-72
2022/12/22 03:33:55;;;;;;;2.80;1.10;;;13.80;44.50;;;;;;4993919;28;20183;-73
2022/12/22 03:36:20;;;;;;;2.80;1.20;;;13.80;44.10;;;;;;4994126;28;20218;-72
2022/12/22 03:38:46;;;;;;;2.83;1.10;;;13.90;43.80;;;;;;4992804;28;20640;-72
2022/12/22 03:46:29;;;;;;;2.90;1.20;;;13.80;43.80;;;;;;4992830;28;20202;-73
2022/12/22 03:46:41;;;;;;;2.83;1.10;;;13.50;44.40;;;;;;4994203;28;20901;-73
2022/12/22 03:49:09;;;;;;;2.83;1.10;;;13.50;43.90;;;;;;4993317;28;20415;-72
2022/12/22 03:51:43;;;;;;;2.80;1.10;;;13.80;43.40;;;;;;4988926;28;20216;-73
2022/12/22 03:54:12;;;;;;;2.90;1.20;;;13.80;42.60;;;;;;4993322;28;20897;-72
2022/12/22 03:56:38;;;;;;;2.97;1.30;;;14.10;42.30;;;;;;4990278;28;20441;-73
2022/12/22 03:59:05;;;;;;;2.90;1.10;;;14.20;40.80;;;;;;4991326;28;20441;-72
2022/12/22 04:01:32;;;;;;;3.00;1.30;;;14.30;40.00;;;;;;4988584;28;20556;-72
2022/12/22 04:03:58;;;;;;;2.93;1.10;;;14.30;39.50;;;;;;4983878;28;20510;-73
2022/12/22 04:06:23;;;;;;;3.00;1.10;;;14.40;38.60;;;;;;4991915;28;20477;-73
2022/12/22 04:08:49;;;;;;;3.00;1.20;;;14.40;38.20;;;;;;4993307;28;20718;-73
2022/12/22 04:14:01;;;;;;;2.93;1.10;;;14.80;36.60;;;;;;4989899;28;20275;-72
2022/12/22 04:16:27;;;;;;;2.90;1.10;;;15.20;35.70;;;;;;4993245;28;20408;-72
2022/12/22 04:18:52;;;;;;;3.10;1.23;;;15.50;35.20;;;;;;4993306;28;20419;-72
2022/12/22 04:21:18;;;;;;;2.90;1.10;;;15.40;37.40;;;;;;4988581;28;20638;-72
2022/12/22 04:23:44;;;;;;;3.47;1.30;;;14.70;36.70;;;;;;4991851;28;20184;-72
2022/12/22 04:26:09;;;;;;;2.90;1.10;;;15.40;35.50;;;;;;4991620;28;20200;-73
2022/12/22 04:28:35;;;;;;;3.00;1.20;;;15.00;35.90;;;;;;4993839;28;20183;-72
2022/12/22 04:31:00;;;;;;;2.97;1.10;;;15.30;35.20;;;;;;5009828;28;20194;-71
2022/12/22 04:33:26;;;;;;;3.00;1.10;;;15.10;35.50;;;;;;5011867;28;20199;-71
2022/12/22 04:35:52;;;;;;;3.07;1.23;;;14.90;36.20;;;;;;5007386;28;20224;-72
2022/12/22 04:38:18;;;;;;;3.00;1.27;;;14.50;37.20;;;;;;4994104;28;20215;-72
2022/12/22 04:40:44;;;;;;;3.00;1.13;;;14.50;37.70;;;;;;4989519;28;20545;-71
2022/12/22 04:43:09;;;;;;;3.10;1.23;;;14.70;37.70;;;;;;4989117;28;20609;-72
2022/12/22 04:45:35;;;;;;;3.00;1.20;;;15.10;37.10;;;;;;4985532;28;20206;-72
2022/12/22 04:48:00;;;;;;;3.00;1.10;;;14.80;39.70;;;;;;4992799;28;20307;-72
2022/12/22 04:50:26;;;;;;;3.00;1.20;;;14.90;39.60;;;;;;4991370;28;20216;-72
2022/12/22 04:52:52;;;;;;;3.00;1.17;;;14.90;41.30;;;;;;4992555;28;20558;-71
2022/12/22 04:55:18;;;;;;;3.10;1.30;;;14.40;42.00;;;;;;4991897;28;20340;-72
2022/12/22 04:57:44;;;;;;;3.10;1.30;;;14.00;43.40;;;;;;4967070;28;20993;-72
2022/12/22 05:00:10;;;;;;;3.07;1.27;;;13.80;44.90;;;;;;4991834;28;20429;-72
2022/12/22 05:02:36;;;;;;;2.90;1.10;;;13.60;46.20;;;;;;4990788;28;20215;-72
2022/12/22 05:05:02;;;;;;;2.90;1.17;;;13.70;46.40;;;;;;4992223;28;20549;-72
2022/12/22 05:07:27;;;;;;;2.90;1.10;;;13.90;47.20;;;;;;4992683;28;20176;-73
2022/12/22 05:09:53;;;;;;;2.80;1.10;;;13.70;47.90;;;;;;4992198;28;20425;-72
2022/12/22 05:15:03;;;;;;;2.80;1.10;;;13.10;50.50;;;;;;4991051;28;20665;-71
2022/12/22 05:17:29;;;;;;;2.80;1.10;;;13.00;52.10;;;;;;4992473;28;20426;-72
2022/12/22 05:19:54;;;;;;;2.87;1.10;;;12.90;52.60;;;;;;4992367;28;20449;-72
2022/12/22 05:22:20;;;;;;;2.80;1.13;;;13.30;51.50;;;;;;4991861;28;20229;-72
2022/12/22 05:24:45;;;;;;;2.80;1.10;;;13.30;50.60;;;;;;4991876;28;20237;-72
2022/12/22 05:27:11;;;;;;;2.70;1.00;;;13.50;49.30;;;;;;4989458;28;20213;-73
2022/12/22 05:29:37;;;;;;;2.80;1.10;;;13.50;48.50;;;;;;4992811;28;20210;-73
2022/12/22 05:32:03;;;;;;;2.80;1.07;;;13.70;48.80;;;;;;4992158;28;20902;-73
2022/12/22 05:34:28;;;;;;;2.70;1.00;;;13.30;47.80;;;;;;4989382;28;20187;-73
2022/12/22 05:36:54;;;;;;;2.80;1.10;;;13.60;47.00;;;;;;4991900;28;20218;-73
2022/12/22 05:39:20;;;;;;;2.90;1.10;;;13.80;46.10;;;;;;4988778;28;20199;-73
2022/12/22 05:41:46;;;;;;;2.80;1.10;;;13.80;45.50;;;;;;4982970;28;20214;-74
2022/12/22 05:44:11;;;;;;;2.90;1.10;;;13.50;46.00;;;;;;4990367;28;20182;-73
2022/12/22 05:46:37;;;;;;;3.00;1.20;;;13.50;44.70;;;;;;4991789;28;20214;-72
2022/12/22 05:49:02;;;;;;;2.87;1.10;;;13.70;43.60;;;;;;4991907;28;20185;-72
2022/12/22 05:51:28;;;;;;;3.40;1.63;;;13.60;43.40;;;;;;4991745;28;20214;-73
2022/12/22 05:53:54;;;;;;;2.90;1.10;;;13.70;42.70;;;;;;4990714;28;20191;-72
2022/12/22 05:56:19;;;;;;;3.83;1.37;;;13.90;42.80;;;;;;4986918;28;20789;-72
2022/12/22 05:58:45;;;;;;;3.10;1.30;;;13.60;41.70;;;;;;4991093;28;20191;-72
2022/12/22 06:01:10;;;;;;;2.87;1.10;;;13.70;43.30;;;;;;4993549;28;20674;-72
2022/12/22 06:03:36;;;;;;;3.00;1.20;;;13.20;43.40;;;;;;4990609;28;20189;-72
2022/12/22 06:06:02;;;;;;;3.00;1.20;;;13.40;42.80;;;;;;4990661;28;20184;-72
2022/12/22 06:08:27;;;;;;;2.90;1.10;;;13.60;44.00;;;;;;4995695;28;20180;-72
2022/12/22 06:10:54;;;;;;;4.07;1.47;;;13.40;44.10;;;;;;4995348;28;20200;-73
2022/12/22 06:13:21;;;;;;;2.90;1.10;;;13.40;43.60;;;;;;4994339;28;20278;-73
2022/12/22 06:15:47;;;;;;;4.90;1.50;;;13.40;43.00;;;;;;4994644;28;20457;-72
2022/12/22 06:18:13;;;;;;;2.90;1.10;;;13.40;43.20;;;;;;4995751;28;20422;-72
2022/12/22 06:20:39;;;;;;;3.00;1.20;;;13.50;43.10;;;;;;4995447;28;20463;-72
2022/12/22 06:23:04;;;;;;;2.97;1.20;;;13.70;43.10;;;;;;4993454;28;20313;-72
2022/12/22 06:25:30;;;;;;;2.90;1.13;;;13.60;42.70;;;;;;4995299;28;20171;-73
2022/12/22 06:27:55;;;;;;;2.90;1.10;;;13.70;42.60;;;;;;4994160;28;20187;-72
2022/12/22 06:30:21;;;;;;;2.93;1.10;;;13.80;41.50;;;;;;4993500;28;20198;-72
2022/12/22 06:32:47;;;;;;;3.10;1.30;;;13.70;41.00;;;;;;4994462;28;20189;-72
2022/12/22 06:35:13;;;;;;;2.90;1.10;;;14.20;41.00;;;;;;4995168;28;20461;-73
2022/12/22 06:37:38;;;;;;;2.90;1.10;;;14.10;40.30;;;;;;4994388;28;20249;-72
2022/12/22 06:40:06;;;;;;;2.93;1.20;;;13.70;40.00;;;;;;4993888;28;20438;-72
2022/12/22 06:45:16;;;;;;;2.90;1.10;;;13.50;41.70;;;;;;4995084;28;20465;-72
2022/12/22 06:47:42;;;;;;;2.90;1.17;;;13.40;40.00;;;;;;4994904;28;20440;-72
2022/12/22 06:50:08;;;;;;;3.00;1.20;;;13.70;39.80;;;;;;4994984;28;20195;-72
2022/12/22 06:52:33;;;;;;;2.93;1.10;;;13.70;38.80;;;;;;4994584;28;20589;-73
2022/12/22 06:55:01;;;;;;;3.00;1.20;;;13.80;38.10;;;;;;4995019;28;20548;-72
2022/12/22 06:57:26;;;;;;;3.40;1.37;;;13.90;37.60;;;;;;4995253;28;20184;-73
2022/12/22 06:59:52;;;;;;;2.93;1.10;;;13.90;37.00;;;;;;4990348;28;20431;-72
2022/12/22 07:02:18;;;;;;;3.00;1.20;;;14.00;36.30;;;;;;4991368;28;20581;-72
2022/12/22 07:04:44;;;;;;;2.93;1.30;;;13.90;37.30;;;;;;4971331;28;20559;-72
2022/12/22 07:07:09;;;;;;;3.10;1.20;;;13.60;36.50;;;;;;4985124;28;20180;-72
2022/12/22 07:09:35;;;;;;;2.97;1.17;;;13.60;36.50;;;;;;4990868;28;20444;-72
2022/12/22 07:12:01;;;;;;;3.00;1.13;;;13.60;38.10;;;;;;4991108;28;20216;-72
2022/12/22 07:14:26;;;;;;;2.90;1.10;;;13.40;39.70;;;;;;4993649;28;20897;-73
2022/12/22 07:16:52;;;;;;;3.50;1.50;;;13.50;40.00;;;;;;4994013;28;20566;-73
2022/12/22 07:19:18;;;;;;;2.90;1.10;;;13.40;38.30;;;;;;4987387;28;20187;-72
2022/12/22 07:21:43;;;;;;;2.90;1.10;;;13.70;38.60;;;;;;4992503;28;20238;-72
2022/12/22 07:24:09;;;;;;;3.10;1.30;;;13.10;38.70;;;;;;4985550;28;20202;-74
2022/12/22 07:26:34;;;;;;;3.00;1.20;;;13.10;39.10;;;;;;4994303;28;20702;-72
2022/12/22 07:29:00;;;;;;;3.00;1.30;;;13.30;39.30;;;;;;4992123;28;20571;-72
2022/12/22 07:31:25;;;;;;;2.90;1.00;;;13.40;39.20;;;;;;4993592;28;20636;-73
2022/12/22 07:33:51;;;;;;;3.00;1.20;;;13.60;39.30;;;;;;4990941;28;20273;-72
2022/12/22 07:36:18;;;;;;;2.90;1.10;;;13.50;38.00;;;;;;4991797;28;20249;-73
2022/12/22 07:38:47;;;;;;;3.00;1.20;;;14.00;37.90;;;;;;4993428;28;20186;-72
2022/12/22 07:43:59;;;;;;;2.90;1.20;;;13.60;37.80;;;;;;4994439;28;20788;-72
2022/12/22 07:46:27;;;;;;;2.90;1.10;;;13.70;37.00;;;;;;4992987;28;20977;-73
2022/12/22 07:51:51;;;;;;;2.90;1.10;;;13.80;35.90;;;;;;4963020;28;20441;-73
2022/12/22 07:54:17;;;;;;;3.10;1.30;;;13.90;36.70;;;;;;4993943;28;20421;-72
2022/12/22 07:56:44;;;;;;;3.00;1.30;;;13.80;35.90;;;;;;4993220;28;20438;-73
2022/12/22 07:59:11;;;;;;;2.97;1.20;;;14.00;37.10;;;;;;4973922;28;20532;-72
2022/12/22 08:01:37;;;;;;;2.90;1.10;;;13.60;39.50;;;;;;4992998;28;20469;-72
2022/12/22 08:04:03;;;;;;;2.90;1.10;;;13.20;44.30;;;;;;4991712;28;20512;-72
2022/12/22 08:06:31;;;;;;;3.03;1.30;;;12.80;47.40;;;;;;4993155;28;20567;-72
2022/12/22 08:08:56;;;;;;;2.93;1.17;;;12.40;52.50;;;;;;4990896;28;20448;-72
2022/12/22 08:11:22;;;;;;;2.77;1.10;;;12.40;53.70;;;;;;4990258;28;20474;-72
2022/12/22 08:13:48;;;;;;;2.83;1.20;;;12.40;56.50;;;;;;4988462;28;20253;-72
2022/12/22 08:16:14;;;;;;;2.80;1.20;;;11.80;60.30;;;;;;4989833;28;20177;-77
2022/12/22 08:18:40;;;;;;;2.70;1.10;;;11.70;61.00;;;;;;4988039;28;20449;-74
2022/12/22 08:21:07;;;;;;;2.63;1.17;;;11.90;64.40;;;;;;4986685;28;20201;-74
2022/12/22 08:23:33;;;;;;;2.70;1.20;;;11.60;65.50;;;;;;4993237;28;20445;-74
2022/12/22 08:26:20;;;;;;;2.57;1.07;;;11.90;62.90;;;;;;4990283;28;20452;-73
2022/12/22 08:28:46;;;;;;;2.50;1.10;;;12.00;61.40;;;;;;4992013;28;20966;-73
2022/12/22 08:31:12;;;;;;;2.50;1.10;;;12.00;61.60;;;;;;4992511;28;20453;-74
2022/12/22 08:33:38;;;;;;;2.33;1.10;;;12.20;59.20;;;;;;4987915;28;20269;-71
2022/12/22 08:36:04;;;;;;;2.50;1.20;;;12.10;58.60;;;;;;4988931;28;21251;-73
2022/12/22 08:38:30;;;;;;;2.40;1.00;;;12.00;58.30;;;;;;4988553;28;20186;-72
2022/12/22 08:40:56;;;;;;;2.40;1.00;;;12.20;56.80;;;;;;4990505;28;20535;-73
2022/12/22 08:43:23;;;;;;;2.40;1.03;;;12.50;54.80;;;;;;4987272;28;20651;-73
2022/12/22 08:45:49;;;;;;;2.60;1.20;;;12.20;54.80;;;;;;4990899;28;20647;-73
2022/12/22 08:48:15;;;;;;;2.40;1.10;;;12.30;54.50;;;;;;4985883;28;20519;-73
2022/12/22 08:50:40;;;;;;;2.23;1.07;;;12.50;53.30;;;;;;4986335;28;20220;-72
2022/12/22 08:53:07;;;;;;;2.53;1.20;;;12.10;53.40;;;;;;4986731;28;20192;-73
2022/12/22 08:55:33;;;;;;;2.40;1.10;;;11.60;57.00;;;;;;4983814;28;20193;-73
2022/12/22 08:57:59;;;;;;;2.70;1.10;;;11.60;56.30;;;;;;4988245;28;20928;-73
2022/12/22 09:00:24;;;;;;;2.53;1.17;;;11.90;55.70;;;;;;4988389;28;20193;-74
2022/12/22 09:02:50;;;;;;;2.50;1.20;;;12.10;55.90;;;;;;4990387;28;20475;-73
2022/12/22 09:05:16;;;;;;;2.60;1.10;;;12.60;53.90;;;;;;4985741;28;20260;-72
2022/12/22 09:07:42;;;;;;;3.37;1.43;;;13.20;51.50;;;;;;4983476;28;20217;-72
2022/12/22 09:10:09;;;;;;;2.50;1.00;;;13.10;50.20;;;;;;4992607;28;20413;-72
2022/12/22 09:12:35;;;;;;;2.70;1.20;;;13.00;49.80;;;;;;4991637;28;20456;-72
2022/12/22 09:15:00;;;;;;;2.60;1.10;;;12.60;51.00;;;;;;4988138;28;20434;-72
2022/12/22 09:17:26;;;;;;;2.60;1.00;;;13.00;51.90;;;;;;4992406;28;20174;-72
2022/12/22 09:19:51;;;;;;;2.73;1.20;;;13.40;49.60;;;;;;4992230;28;20185;-73
2022/12/22 09:22:17;;;;;;;2.80;1.30;;;13.30;49.00;;;;;;4990401;28;20736;-74
2022/12/22 09:24:43;;;;;;;2.70;1.20;;;13.70;48.90;;;;;;4992452;28;20166;-73
2022/12/22 09:27:09;;;;;;;2.70;1.10;;;12.90;48.80;;;;;;4990499;28;20232;-73
2022/12/22 09:29:36;;;;;;;2.70;1.20;;;12.70;50.80;;;;;;4987574;28;20919;-74
2022/12/22 09:32:03;;;;;;;2.70;1.17;;;13.00;49.60;;;;;;4987570;28;20484;-72
2022/12/22 09:34:28;;;;;;;2.70;1.17;;;12.70;51.10;;;;;;4982693;28;21076;-72
2022/12/22 09:36:54;;;;;;;2.90;1.30;;;13.10;51.70;;;;;;4986166;28;20436;-72
2022/12/22 09:39:20;;;;;;;2.60;1.10;;;12.90;51.30;;;;;;4984300;28;20414;-73
2022/12/22 09:41:52;;;;;;;2.70;1.20;;;12.80;53.50;;;;;;4991971;28;20213;-72
2022/12/22 09:44:28;;;;;;;2.60;1.10;;;12.80;52.20;;;;;;4986757;28;20182;-73
2022/12/22 09:47:00;;;;;;;2.57;1.00;;;12.90;51.30;;;;;;4990247;28;20472;-73
2022/12/22 09:49:26;;;;;;;2.60;1.10;;;13.30;52.40;;;;;;4990087;28;20433;-73
2022/12/22 09:51:55;;;;;;;2.50;1.10;;;13.10;51.00;;;;;;4991526;28;20532;-72
2022/12/22 09:54:22;;;;;;;2.50;1.00;;;13.40;50.00;;;;;;4989198;28;20468;-73
2022/12/22 09:56:48;;;;;;;2.60;1.10;;;13.30;50.90;;;;;;4986864;28;20751;-73
2022/12/22 09:59:16;;;;;;;3.00;1.57;;;13.50;49.70;;;;;;4989928;28;20444;-72
2022/12/22 10:01:50;;;;;;;2.70;1.20;;;13.60;49.90;;;;;;4987294;28;20602;-72
2022/12/22 10:04:28;;;;;;;2.57;1.00;;;13.20;50.00;;;;;;4986528;28;20428;-73
2022/12/22 10:07:15;;;;;;;2.60;1.10;;;13.30;50.10;;;;;;4973475;28;20421;-72
2022/12/22 10:09:41;;;;;;;2.87;1.33;;;13.10;50.40;;;;;;4981272;28;20508;-72
2022/12/22 10:12:15;;;;;;;2.60;1.10;;;13.10;51.50;;;;;;4986473;28;20868;-72
2022/12/22 10:14:44;;;;;;;2.60;1.10;;;13.70;49.00;;;;;;4995403;28;20708;-72
2022/12/22 10:17:26;;;;;;;2.80;1.20;;;13.00;50.40;;;;;;4994015;28;20420;-71
2022/12/22 10:20:05;;;;;;;2.70;1.10;;;12.40;54.60;;;;;;4991963;28;20381;-72
2022/12/22 10:22:33;;;;;;;2.80;1.30;;;12.30;54.40;;;;;;4988712;28;20472;-72
2022/12/22 10:25:00;;;;;;;2.70;1.10;;;12.50;53.80;;;;;;4991377;28;20424;-73
2022/12/22 10:27:30;;;;;;;2.93;1.20;;;13.10;51.50;;;;;;5001096;28;20417;-72
2022/12/22 10:30:17;;;;;;;3.00;1.30;;;12.90;50.20;;;;;;5011298;28;20451;-73
2022/12/22 10:32:59;;;;;;;2.70;1.10;;;12.80;51.20;;;;;;4996485;28;20449;-72
2022/12/22 10:35:24;;;;;;;2.80;1.20;;;13.50;50.90;;;;;;4989379;28;20481;-72
2022/12/22 10:37:50;;;;;;;2.77;1.10;;;13.10;49.50;;;;;;4990632;28;20923;-72
2022/12/22 10:40:21;;;;;;;2.63;1.00;;;13.10;49.90;;;;;;4987024;28;20197;-72
2022/12/22 10:42:51;;;;;;;2.73;1.10;;;12.90;50.60;;;;;;4987236;28;20209;-72
2022/12/22 10:45:19;;;;;;;2.70;1.10;;;12.70;52.50;;;;;;4994907;28;20411;-72
2022/12/22 10:47:51;;;;;;;2.70;1.10;;;12.40;54.30;;;;;;4992132;28;20426;-72
2022/12/22 10:50:18;;;;;;;2.97;1.37;;;12.70;53.10;;;;;;4991171;28;20496;-72
2022/12/22 10:52:57;;;;;;;2.90;1.13;;;13.60;51.50;;;;;;4986314;28;20964;-72
2022/12/22 10:55:28;;;;;;;2.70;1.20;;;13.50;48.40;;;;;;4988975;28;20987;-72
2022/12/22 10:58:27;;;;;;;3.00;1.33;;;13.00;49.90;;;;;;4987819;28;20436;-72
2022/12/22 11:01:03;;;;;;;2.80;1.10;;;13.40;48.60;;;;;;4911210;29;20493;-72
2022/12/22 11:03:30;;;;;;;2.90;1.10;;;13.30;48.90;;;;;;4924954;29;20522;-72
2022/12/22 11:05:57;;;;;;;2.87;1.10;;;13.50;47.40;;;;;;4921590;29;20452;-73
2022/12/22 11:08:24;;;;;;;2.80;1.10;;;13.60;47.00;;;;;;4929057;29;20504;-72
2022/12/22 11:11:04;;;;;;;3.00;1.30;;;13.20;47.60;;;;;;4942188;29;21027;-72
2022/12/22 11:13:46;;;;;;;2.90;1.20;;;13.20;47.60;;;;;;4935335;29;20466;-72
2022/12/22 11:16:39;;;;;;;2.90;1.10;;;13.00;50.40;;;;;;4926209;29;21068;-73
2022/12/22 11:19:52;;;;;;;3.00;1.37;;;13.10;48.60;;;;;;4914723;29;20457;-73
2022/12/22 11:22:23;;;;;;;4.23;1.63;;;12.90;48.50;;;;;;4904111;29;20897;-72
2022/12/22 11:25:29;;;;;;;3.40;1.30;;;13.10;48.30;;;;;;4903531;29;20419;-73
2022/12/22 11:28:12;;;;;;;2.90;1.00;;;13.60;46.80;;;;;;4904919;29;20815;-72
2022/12/22 11:31:05;;;;;;;2.97;1.13;;;13.60;46.00;;;;;;4899553;29;20992;-71
2022/12/22 11:33:42;;;;;;;3.00;1.20;;;13.40;47.50;;;;;;4905611;29;20434;-71
2022/12/22 11:36:26;;;;;;;3.00;1.13;;;13.80;45.80;;;;;;4929370;29;20515;-72
2022/12/22 11:39:03;;;;;;;3.00;1.20;;;13.90;45.60;;;;;;4937688;29;20465;-71
2022/12/22 11:41:48;;;;;;;2.90;1.10;;;14.20;45.70;;;;;;4929180;29;20538;-72
2022/12/22 11:44:29;;;;;;;3.03;1.23;;;13.80;44.90;;;;;;4933937;29;20498;-72
2022/12/22 11:47:22;;;;;;;3.00;1.10;;;13.60;45.10;;;;;;4931487;29;20478;-72
2022/12/22 11:50:02;;;;;;;2.93;1.10;;;13.40;46.90;;;;;;4927484;29;20885;-76
2022/12/22 11:52:36;;;;;;;3.00;1.20;;;13.40;45.80;;;;;;4932511;29;20473;-71
2022/12/22 11:55:04;;;;;;;2.93;1.17;;;13.40;45.90;;;;;;4915572;29;20465;-71
2022/12/22 11:57:52;;;;;;;3.07;1.27;;;13.40;46.00;;;;;;4928819;29;20441;-71
2022/12/22 12:00:18;;;;;;;3.03;1.20;;;13.80;45.00;;;;;;4993398;28;20406;-72
2022/12/22 12:03:13;;;;;;;2.90;1.10;;;13.80;44.90;;;;;;4986471;28;20474;-72
2022/12/22 12:06:10;;;;;;;2.90;1.10;;;14.00;44.90;;;;;;4891672;29;20449;-71
2022/12/22 12:09:00;;;;;;;3.00;1.20;;;13.80;44.60;;;;;;4896925;29;20426;-73
2022/12/22 12:11:33;;;;;;;2.93;1.10;;;13.50;46.10;;;;;;4893242;29;21002;-72
2022/12/22 12:14:17;;;;;;;2.90;1.10;;;13.80;45.00;;;;;;4894439;29;20912;-72
2022/12/22 12:16:54;;;;;;;3.10;1.30;;;14.10;44.40;;;;;;4896447;29;20443;-72
2022/12/22 12:19:44;;;;;;;3.10;1.30;;;14.30;43.80;;;;;;4890686;29;20586;-72
2022/12/22 12:22:58;;;;;;;3.00;1.20;;;14.40;43.50;;;;;;4892868;29;21079;-72
2022/12/22 12:25:39;;;;;;;3.00;1.30;;;14.20;43.10;;;;;;4848238;29;20447;-71
2022/12/22 12:28:43;;;;;;;2.93;1.10;;;13.90;43.00;;;;;;4898555;29;20484;-72
2022/12/22 12:31:14;;;;;;;3.00;1.13;;;13.50;46.00;;;;;;4906218;29;20455;-70
2022/12/22 12:33:53;;;;;;;3.00;1.20;;;13.90;45.10;;;;;;4916839;29;20474;-72
2022/12/22 12:36:44;;;;;;;3.30;1.40;;;13.90;44.50;;;;;;4919175;29;21058;-72
2022/12/22 12:39:48;;;;;;;3.57;1.50;;;13.90;44.10;;;;;;4917639;29;20425;-70
2022/12/22 12:42:36;;;;;;;2.90;1.10;;;14.00;43.90;;;;;;4973847;28;20486;-70
2022/12/22 12:45:04;;;;;;;3.47;1.50;;;14.10;43.60;;;;;;4994475;28;20435;-71
2022/12/22 12:47:30;;;;;;;3.10;1.30;;;14.30;42.60;;;;;;4979546;28;20515;-71
2022/12/22 12:50:21;;;;;;;2.90;1.10;;;14.00;43.00;;;;;;4975758;28;20417;-72
2022/12/22 12:52:47;;;;;;;2.90;1.10;;;14.00;42.70;;;;;;4981932;28;20996;-70
2022/12/22 12:55:21;;;;;;;2.97;1.17;;;13.80;44.20;;;;;;4991833;28;20475;-72
2022/12/22 12:57:48;;;;;;;2.97;1.20;;;14.10;42.10;;;;;;4994100;28;20944;-72
2022/12/22 13:00:36;;;;;;;3.10;1.40;;;13.70;44.80;;;;;;4991997;28;20423;-72
2022/12/22 13:03:03;;;;;;;3.10;1.30;;;14.20;42.90;;;;;;4992329;28;20465;-73
2022/12/22 13:05:51;;;;;;;3.00;1.20;;;14.40;42.00;;;;;;4992002;28;20511;-72
2022/12/22 13:08:19;;;;;;;3.10;1.30;;;14.30;42.00;;;;;;4992946;28;20486;-70
2022/12/22 13:10:53;;;;;;;3.03;1.20;;;13.70;44.40;;;;;;4992249;28;20425;-71
2022/12/22 13:13:24;;;;;;;3.00;1.27;;;14.30;42.30;;;;;;4992707;28;20397;-72
2022/12/22 13:15:59;;;;;;;3.40;1.40;;;14.20;42.10;;;;;;4992498;28;20405;-71
2022/12/22 13:18:24;;;;;;;2.90;1.10;;;14.90;41.20;;;;;;4988170;28;20964;-72
2022/12/22 13:21:16;;;;;;;6.30;1.67;;;14.30;41.30;;;;;;4987055;28;20471;-72
2022/12/22 13:23:54;;;;;;;2.90;1.20;;;14.00;41.70;;;;;;4975113;28;20284;-71
2022/12/22 13:26:41;;;;;;;2.90;1.20;;;13.60;42.50;;;;;;4992798;28;20482;-71
2022/12/22 13:29:07;;;;;;;2.87;1.17;;;14.20;41.10;;;;;;4982673;28;20422;-72
2022/12/22 13:31:36;;;;;;;3.87;1.50;;;14.10;40.60;;;;;;4983290;28;20447;-71
2022/12/22 13:34:38;;;;;;;2.93;1.20;;;14.10;40.40;;;;;;4992166;28;20845;-71
2022/12/22 13:37:19;;;;;;;2.90;1.10;;;14.50;40.90;;;;;;4985917;28;20875;-72
2022/12/22 13:40:08;;;;;;;2.90;1.20;;;14.90;38.90;;;;;;4989754;28;20889;-71
2022/12/22 13:42:37;;;;;;;2.90;1.20;;;14.60;39.00;;;;;;4989549;28;20480;-72
2022/12/22 13:45:05;;;;;;;3.00;1.30;;;14.00;41.80;;;;;;4987537;28;21014;-72
2022/12/22 13:47:31;;;;;;;3.10;1.30;;;14.10;41.70;;;;;;4987239;28;20429;-73
2022/12/22 13:49:57;;;;;;;4.57;1.70;;;13.90;41.60;;;;;;4992294;28;20413;-72
2022/12/22 13:52:23;;;;;;;3.50;1.70;;;14.00;41.80;;;;;;4987736;28;20631;-72
2022/12/22 13:54:49;;;;;;;4.27;1.50;;;13.80;42.30;;;;;;4992337;28;20420;-73
2022/12/22 13:57:20;;;;;;;3.00;1.30;;;14.20;42.50;;;;;;4987489;28;20457;-72
2022/12/22 13:59:49;;;;;;;3.00;1.30;;;13.90;42.80;;;;;;4987217;28;20281;-73
2022/12/22 14:02:17;;;;;;;3.00;1.20;;;14.10;42.30;;;;;;4985533;28;20472;-75
2022/12/22 14:05:01;;;;;;;2.93;1.20;;;14.20;42.20;;;;;;4985987;28;20606;-74
2022/12/22 14:07:26;;;;;;;2.90;1.20;;;14.20;42.10;;;;;;4986001;28;21035;-73
2022/12/22 14:09:55;;;;;;;2.90;1.20;;;14.20;41.90;;;;;;4992198;28;20444;-75
2022/12/22 14:12:28;;;;;;;3.00;1.30;;;14.00;41.60;;;;;;4985503;28;20219;-73
2022/12/22 14:14:56;;;;;;;2.90;1.10;;;13.90;42.40;;;;;;4982797;28;20433;-72
2022/12/22 14:17:34;;;;;;;3.60;1.27;;;13.80;43.60;;;;;;4985789;28;20441;-73
2022/12/22 14:20:08;;;;;;;3.10;1.30;;;13.80;42.20;;;;;;4992016;28;20493;-72
2022/12/22 14:22:39;;;;;;;3.53;1.40;;;13.60;42.50;;;;;;4988054;28;20474;-72
2022/12/22 14:25:15;;;;;;;2.83;1.17;;;14.30;42.40;;;;;;4981032;28;20451;-72
2022/12/22 14:27:51;;;;;;;3.00;1.27;;;14.00;41.50;;;;;;4990652;28;20984;-72
2022/12/22 14:30:51;;;;;;;2.87;1.10;;;13.90;41.50;;;;;;4989979;28;20488;-71
2022/12/22 14:33:22;;;;;;;2.90;1.20;;;13.50;42.60;;;;;;4912488;29;21036;-72
2022/12/22 14:35:49;;;;;;;2.90;1.20;;;13.30;43.20;;;;;;4913054;29;20452;-72
2022/12/22 14:38:25;;;;;;;2.90;1.10;;;13.80;42.00;;;;;;4931994;29;20673;-71
2022/12/22 14:40:52;;;;;;;3.50;1.50;;;13.20;43.70;;;;;;4921175;29;20820;-71
2022/12/22 14:43:18;;;;;;;2.90;1.20;;;12.80;43.50;;;;;;4923479;29;20485;-71
2022/12/22 14:45:48;;;;;;;3.00;1.20;;;13.10;42.80;;;;;;4924015;29;20443;-71
2022/12/22 14:48:44;;;;;;;2.97;1.20;;;13.30;42.00;;;;;;4921662;29;20186;-71
2022/12/22 14:51:14;;;;;;;2.90;1.20;;;13.40;41.90;;;;;;4909416;29;20548;-71
2022/12/22 14:53:51;;;;;;;2.90;1.10;;;13.10;42.70;;;;;;4912340;29;20537;-70
2022/12/22 14:56:18;;;;;;;2.93;1.20;;;13.40;41.40;;;;;;4914546;29;21525;-71
2022/12/22 14:58:45;;;;;;;2.90;1.20;;;13.50;41.50;;;;;;4915915;29;20470;-71
2022/12/22 15:01:19;;;;;;;2.80;1.10;;;13.50;41.90;;;;;;4926202;29;20537;-72
2022/12/22 15:04:03;;;;;;;3.73;1.50;;;13.60;41.30;;;;;;4912664;29;21023;-71
2022/12/22 15:06:28;;;;;;;2.90;1.10;;;13.40;42.40;;;;;;4927027;29;20791;-71
2022/12/22 15:09:10;;;;;;;2.80;1.07;;;13.40;41.80;;;;;;4939056;28;20450;-71
2022/12/22 15:11:45;;;;;;;2.90;1.20;;;13.50;42.60;;;;;;4989028;28;20294;-70
2022/12/22 15:14:16;;;;;;;2.90;1.20;;;13.30;42.60;;;;;;4982315;28;20433;-72
2022/12/22 15:16:43;;;;;;;2.97;1.27;;;13.30;42.30;;;;;;4994197;28;20399;-71
2022/12/22 15:19:15;;;;;;;3.20;1.50;;;13.20;42.60;;;;;;4991191;28;20430;-71
2022/12/22 15:21:40;;;;;;;3.00;1.30;;;13.10;42.80;;;;;;4988431;28;20503;-71
2022/12/22 15:24:14;;;;;;;2.87;1.17;;;13.70;43.00;;;;;;4994288;28;20409;-73
2022/12/22 15:26:40;;;;;;;2.87;1.10;;;13.90;42.00;;;;;;4994426;28;20210;-71
2022/12/22 15:29:06;;;;;;;2.80;1.10;;;13.60;42.20;;;;;;4998734;28;20597;-73
2022/12/22 15:31:32;;;;;;;2.87;1.20;;;13.40;42.60;;;;;;4986854;28;20533;-72
2022/12/22 15:34:03;;;;;;;2.80;1.10;;;14.10;41.70;;;;;;4989371;28;20964;-73
2022/12/22 15:36:29;;;;;;;3.00;1.30;;;13.80;40.80;;;;;;4994249;28;20304;-71
2022/12/22 15:38:54;;;;;;;2.80;1.10;;;13.30;42.60;;;;;;4993252;28;20513;-73
2022/12/22 15:41:20;;;;;;;4.07;1.93;;;12.90;43.40;;;;;;4975372;28;20527;-73
2022/12/22 15:43:46;;;;;;;3.30;1.40;;;13.00;43.60;;;;;;4993255;28;20211;-72
2022/12/22 15:46:17;;;;;;;2.90;1.20;;;12.80;44.30;;;;;;4985874;28;20198;-72
2022/12/22 15:48:45;;;;;;;2.90;1.20;;;13.20;43.20;;;;;;4993375;28;20523;-72
2022/12/22 15:51:19;;;;;;;3.00;1.30;;;13.60;42.20;;;;;;4992045;28;20466;-73
2022/12/22 15:53:45;;;;;;;3.00;1.30;;;13.60;42.00;;;;;;4988048;28;20908;-72
2022/12/22 15:56:23;;;;;;;2.80;1.10;;;13.90;41.20;;;;;;4993969;28;20418;-74
2022/12/22 15:58:49;;;;;;;2.80;1.20;;;13.60;42.10;;;;;;4992903;28;20418;-74
2022/12/22 16:01:15;;;;;;;3.10;1.40;;;13.80;40.90;;;;;;4990272;28;21003;-73
2022/12/22 16:03:40;;;;;;;2.80;1.10;;;13.90;40.90;;;;;;4986143;28;20212;-73
2022/12/22 16:06:12;;;;;;;2.90;1.20;;;13.80;41.00;;;;;;4986624;28;20809;-72
2022/12/22 16:08:40;;;;;;;2.90;1.20;;;13.60;41.90;;;;;;4989621;28;20228;-72
2022/12/22 16:11:07;;;;;;;3.30;1.40;;;13.40;43.20;;;;;;4988420;28;20818;-73
2022/12/22 16:13:35;;;;;;;3.00;1.30;;;13.40;42.30;;;;;;4969619;28;20463;-72
2022/12/22 16:16:01;;;;;;;2.73;1.10;;;13.70;41.30;;;;;;4984566;28;20442;-72
2022/12/22 16:18:27;;;;;;;2.77;1.07;;;13.60;41.70;;;;;;4992569;28;20469;-72
2022/12/22 16:20:53;;;;;;;2.80;1.10;;;13.70;41.40;;;;;;4987029;28;20209;-72
2022/12/22 16:23:23;;;;;;;3.80;1.60;;;13.90;40.60;;;;;;4990475;28;20223;-73
2022/12/22 16:25:49;;;;;;;2.90;1.30;;;13.70;40.80;;;;;;4984285;28;20463;-72
2022/12/22 16:28:19;;;;;;;3.20;1.40;;;13.80;42.20;;;;;;4988537;28;20474;-73
2022/12/22 16:30:44;;;;;;;3.40;1.60;;;13.90;42.40;;;;;;4990389;28;20458;-72
2022/12/22 16:33:11;;;;;;;2.90;1.20;;;13.50;41.70;;;;;;4994798;28;20438;-72
2022/12/22 16:35:38;;;;;;;2.80;1.10;;;13.70;42.30;;;;;;4992916;28;20179;-73
2022/12/22 16:38:04;;;;;;;2.90;1.27;;;13.80;41.90;;;;;;4984056;28;20443;-74
2022/12/22 16:40:32;;;;;;;3.10;1.33;;;14.00;40.50;;;;;;4988589;28;20516;-71
2022/12/22 16:43:12;;;;;;;5.63;1.63;;;14.10;41.30;;;;;;4986224;28;20595;-72
2022/12/22 16:45:43;;;;;;;2.90;1.27;;;14.10;39.70;;;;;;4985507;28;20437;-73
2022/12/22 16:48:15;;;;;;;2.90;1.27;;;14.60;39.70;;;;;;4991946;28;20483;-72